Time;durP1;ratioP1;P1;durP2;ratioP2;P2;SDS_P1;SDS_P2;PMS_P1;PMS_P2;Temp;Humidity;BMP_temperature;BMP_pressure;BME280_temperature;BME280_humidity;BME280_pressure;Samples;Min_cycle;Max_cycle;Signal;HPM_P1;HPM_P2
2022/08/03 00:01:03;;;;;;;9.85;3.50;;;19.10;99.90;;;;;;5115591;28;20115;-69
2022/08/03 00:03:29;;;;;;;11.23;3.97;;;19.10;99.90;;;;;;5098019;28;20051;-69
2022/08/03 00:05:55;;;;;;;10.63;3.40;;;19.00;99.90;;;;;;5115885;28;20089;-69
2022/08/03 00:08:20;;;;;;;6.50;3.47;;;19.30;99.90;;;;;;5116136;28;20039;-69
2022/08/03 00:10:46;;;;;;;9.90;4.10;;;19.10;99.90;;;;;;5115810;28;20138;-70
2022/08/03 00:13:12;;;;;;;8.55;4.28;;;19.20;99.90;;;;;;5097915;28;20032;-70
2022/08/03 00:15:41;;;;;;;9.38;3.72;;;19.00;99.90;;;;;;5115877;28;20119;-69
2022/08/03 00:18:07;;;;;;;12.32;3.63;;;19.20;99.90;;;;;;5097659;28;20122;-69
2022/08/03 00:20:34;;;;;;;15.00;4.20;;;19.20;99.90;;;;;;5115782;28;20073;-70
2022/08/03 00:22:59;;;;;;;11.55;3.28;;;19.00;99.90;;;;;;5115900;28;20366;-71
2022/08/03 00:25:25;;;;;;;10.55;3.50;;;19.10;99.90;;;;;;5115727;28;20123;-70
2022/08/03 00:27:51;;;;;;;10.90;3.50;;;19.10;99.90;;;;;;5097226;28;20039;-71
2022/08/03 00:30:16;;;;;;;11.40;3.50;;;19.00;99.90;;;;;;5115240;28;20124;-71
2022/08/03 00:32:42;;;;;;;14.13;4.07;;;18.90;99.90;;;;;;5115771;28;20043;-72
2022/08/03 00:35:08;;;;;;;8.60;3.88;;;19.20;99.90;;;;;;5115385;28;20071;-69
2022/08/03 00:37:33;;;;;;;9.77;3.17;;;19.10;99.90;;;;;;5115385;28;20039;-71
2022/08/03 00:39:59;;;;;;;9.45;3.50;;;19.20;99.90;;;;;;5114890;28;20040;-69
2022/08/03 00:42:24;;;;;;;9.00;3.40;;;19.00;99.90;;;;;;5115241;28;20087;-69
2022/08/03 00:44:50;;;;;;;14.02;4.15;;;19.10;99.90;;;;;;5115014;28;20550;-69
2022/08/03 00:47:15;;;;;;;9.02;3.78;;;19.10;99.90;;;;;;5115195;28;20134;-70
2022/08/03 00:49:41;;;;;;;9.55;3.13;;;19.00;99.90;;;;;;5114894;28;20515;-69
2022/08/03 00:52:09;;;;;;;8.10;3.08;;;18.90;99.90;;;;;;5114898;28;20075;-69
2022/08/03 00:54:38;;;;;;;7.80;3.25;;;19.00;99.90;;;;;;5096914;28;20519;-69
2022/08/03 00:57:04;;;;;;;5.75;3.10;;;18.90;99.90;;;;;;5096597;28;20038;-69
2022/08/03 00:59:30;;;;;;;8.32;2.88;;;19.00;99.90;;;;;;5114495;28;20088;-69
2022/08/03 01:01:56;;;;;;;7.60;3.00;;;18.80;99.90;;;;;;5095921;28;20087;-69
2022/08/03 01:04:21;;;;;;;7.90;2.38;;;19.00;99.90;;;;;;5114767;28;20485;-69
2022/08/03 01:07:10;;;;;;;5.53;2.63;;;18.90;99.90;;;;;;5114792;28;20050;-69
2022/08/03 01:10:02;;;;;;;6.22;2.97;;;18.80;99.90;;;;;;5114457;28;20035;-69
2022/08/03 01:12:36;;;;;;;8.85;3.00;;;18.60;99.90;;;;;;5114934;28;20088;-69
2022/08/03 01:15:16;;;;;;;12.25;2.70;;;18.80;99.90;;;;;;5114802;28;20042;-70
2022/08/03 01:17:51;;;;;;;6.70;2.58;;;18.60;99.90;;;;;;5096264;28;20040;-69
2022/08/03 01:20:20;;;;;;;7.85;3.08;;;18.70;99.90;;;;;;5114222;28;20095;-70
2022/08/03 01:23:14;;;;;;;12.55;3.20;;;18.60;99.90;;;;;;5114655;28;20115;-69
2022/08/03 01:26:14;;;;;;;7.13;3.38;;;18.80;99.90;;;;;;5114457;28;20102;-69
2022/08/03 01:28:48;;;;;;;8.63;2.50;;;18.60;99.90;;;;;;5114235;28;20454;-69
2022/08/03 01:31:21;;;;;;;8.10;2.42;;;18.70;99.90;;;;;;5114128;28;20039;-69
2022/08/03 01:33:53;;;;;;;6.65;2.85;;;18.60;99.90;;;;;;5114438;28;20043;-69
2022/08/03 01:36:25;;;;;;;8.10;3.55;;;18.80;99.90;;;;;;5114334;28;20040;-69
2022/08/03 01:38:55;;;;;;;7.68;2.70;;;18.70;99.90;;;;;;5095703;28;20123;-69
2022/08/03 01:41:27;;;;;;;9.00;2.80;;;18.70;99.90;;;;;;5114001;28;20111;-69
2022/08/03 01:43:56;;;;;;;8.07;2.50;;;18.60;99.90;;;;;;5114164;28;20042;-69
2022/08/03 01:46:24;;;;;;;6.28;2.17;;;18.70;99.90;;;;;;5113895;28;20035;-70
2022/08/03 01:48:50;;;;;;;8.88;2.30;;;18.70;99.90;;;;;;5113886;28;20027;-70
2022/08/03 01:51:18;;;;;;;6.03;2.53;;;18.60;99.90;;;;;;5113469;28;20036;-69
2022/08/03 01:53:47;;;;;;;6.90;2.58;;;18.60;99.90;;;;;;5113900;28;20035;-69
2022/08/03 01:56:14;;;;;;;8.93;2.53;;;18.50;99.90;;;;;;5113590;28;20039;-69
2022/08/03 01:58:42;;;;;;;7.55;2.30;;;18.60;99.90;;;;;;5113750;28;20104;-68
2022/08/03 02:01:09;;;;;;;5.38;2.15;;;18.70;99.90;;;;;;5113420;28;20405;-70
2022/08/03 02:03:41;;;;;;;5.28;2.15;;;18.70;99.90;;;;;;5113626;28;20035;-69
2022/08/03 02:06:10;;;;;;;9.25;2.28;;;18.70;99.90;;;;;;5095388;28;20039;-69
2022/08/03 02:08:38;;;;;;;8.52;2.88;;;18.60;99.90;;;;;;5095196;28;20048;-69
2022/08/03 02:11:05;;;;;;;6.72;2.42;;;18.50;99.90;;;;;;5113329;28;20176;-69
2022/08/03 02:13:32;;;;;;;9.85;2.90;;;18.50;99.90;;;;;;5112729;28;20110;-69
2022/08/03 02:15:59;;;;;;;8.00;2.53;;;18.50;99.90;;;;;;5113439;28;20032;-69
2022/08/03 02:18:26;;;;;;;7.00;2.88;;;18.50;99.90;;;;;;5113071;28;20518;-69
2022/08/03 02:20:52;;;;;;;7.15;2.38;;;18.60;99.90;;;;;;5113226;28;20039;-69
2022/08/03 02:23:18;;;;;;;3.53;1.98;;;18.50;99.90;;;;;;5113343;28;20035;-69
2022/08/03 02:25:52;;;;;;;8.73;2.88;;;18.50;99.90;;;;;;5113220;28;20064;-69
2022/08/03 02:28:28;;;;;;;6.88;2.10;;;18.30;99.90;;;;;;5094827;28;20560;-69
2022/08/03 02:30:55;;;;;;;4.13;2.30;;;18.30;99.90;;;;;;5112714;28;20555;-69
2022/08/03 02:33:29;;;;;;;11.98;2.00;;;18.50;99.90;;;;;;5113102;28;20437;-70
2022/08/03 02:35:56;;;;;;;11.07;2.53;;;18.30;99.90;;;;;;5113093;28;20059;-68
2022/08/03 02:38:29;;;;;;;9.00;2.83;;;18.30;99.90;;;;;;5112800;28;20477;-69
2022/08/03 02:40:57;;;;;;;9.10;2.42;;;18.30;99.90;;;;;;5094325;28;20137;-69
2022/08/03 02:43:24;;;;;;;6.82;2.22;;;18.30;99.90;;;;;;5112762;28;20046;-70
2022/08/03 02:45:52;;;;;;;8.63;2.33;;;18.40;99.90;;;;;;5094785;28;20118;-69
2022/08/03 02:48:22;;;;;;;6.70;2.42;;;18.20;99.90;;;;;;5094507;28;20040;-70
2022/08/03 02:50:50;;;;;;;5.85;1.95;;;18.40;99.90;;;;;;5112473;28;20044;-69
2022/08/03 02:53:18;;;;;;;9.73;2.22;;;18.30;99.90;;;;;;5112689;28;20122;-68
2022/08/03 02:55:46;;;;;;;6.05;1.90;;;18.20;99.90;;;;;;5118209;27;20483;-69
2022/08/03 02:58:14;;;;;;;11.90;2.53;;;18.00;99.90;;;;;;5124349;27;20524;-69
2022/08/03 03:00:42;;;;;;;9.07;1.83;;;18.30;99.90;;;;;;5114388;27;20031;-69
2022/08/03 03:03:09;;;;;;;10.65;2.10;;;18.10;99.90;;;;;;5133154;27;20035;-69
2022/08/03 03:05:36;;;;;;;6.53;2.85;;;18.10;99.90;;;;;;5131023;27;20208;-69
2022/08/03 03:08:02;;;;;;;7.88;2.42;;;18.00;99.90;;;;;;5124339;27;20045;-69
2022/08/03 03:10:28;;;;;;;6.72;2.15;;;18.20;99.90;;;;;;5114331;27;20039;-68
2022/08/03 03:12:58;;;;;;;8.63;2.47;;;18.10;99.90;;;;;;5114546;27;20035;-70
2022/08/03 03:15:25;;;;;;;8.27;2.20;;;18.00;99.90;;;;;;5132755;27;20031;-70
2022/08/03 03:17:52;;;;;;;7.18;2.10;;;17.90;99.90;;;;;;5114341;27;20054;-69
2022/08/03 03:20:20;;;;;;;6.45;2.45;;;18.10;99.90;;;;;;5114163;27;20039;-70
2022/08/03 03:22:48;;;;;;;7.10;2.05;;;18.10;99.90;;;;;;5132894;27;20047;-69
2022/08/03 03:25:14;;;;;;;11.40;2.40;;;17.90;99.90;;;;;;5132497;27;20031;-69
2022/08/03 03:27:39;;;;;;;6.28;2.50;;;18.10;99.90;;;;;;5114575;28;20042;-69
2022/08/03 03:30:06;;;;;;;9.27;2.67;;;18.00;99.90;;;;;;5114035;28;20050;-69
2022/08/03 03:32:31;;;;;;;11.65;2.65;;;18.00;99.90;;;;;;5114376;28;20085;-69
2022/08/03 03:34:58;;;;;;;9.57;2.47;;;17.80;99.90;;;;;;5132465;28;20067;-69
2022/08/03 03:37:25;;;;;;;8.63;2.42;;;17.90;99.90;;;;;;5124170;28;20043;-69
2022/08/03 03:39:53;;;;;;;12.88;2.70;;;17.80;99.90;;;;;;5105535;28;20404;-69
2022/08/03 03:42:19;;;;;;;8.18;2.20;;;17.80;99.90;;;;;;5114497;28;20027;-69
2022/08/03 03:44:44;;;;;;;7.60;2.47;;;17.90;99.90;;;;;;5114335;28;20054;-69
2022/08/03 03:47:10;;;;;;;6.07;2.95;;;18.00;99.90;;;;;;5132589;28;20035;-69
2022/08/03 03:49:36;;;;;;;12.30;2.47;;;17.80;99.90;;;;;;5113965;28;20087;-69
2022/08/03 03:52:02;;;;;;;6.03;2.38;;;17.70;99.90;;;;;;5132493;28;20031;-69
2022/08/03 03:54:39;;;;;;;9.60;2.40;;;18.00;99.90;;;;;;5113985;28;20050;-69
2022/08/03 03:57:04;;;;;;;7.95;2.25;;;18.00;99.90;;;;;;5132659;28;20038;-68
2022/08/03 03:59:30;;;;;;;9.75;2.03;;;17.90;99.90;;;;;;5132234;28;20396;-69
2022/08/03 04:01:55;;;;;;;10.00;3.53;;;17.90;99.90;;;;;;5132253;28;20552;-69
2022/08/03 04:12:36;;;;;;;7.38;2.40;;;17.70;99.90;;;;;;5132409;28;20043;-69
2022/08/03 04:15:03;;;;;;;9.95;2.80;;;18.00;99.90;;;;;;5113702;28;20047;-69
2022/08/03 04:17:31;;;;;;;7.47;3.08;;;17.90;99.90;;;;;;5132369;28;20131;-70
2022/08/03 04:20:00;;;;;;;8.95;2.58;;;18.00;99.90;;;;;;5132102;28;20042;-70
2022/08/03 04:22:28;;;;;;;7.47;2.70;;;17.90;99.90;;;;;;5132318;28;20043;-70
2022/08/03 04:25:03;;;;;;;9.32;2.72;;;18.00;99.90;;;;;;5132240;28;20046;-70
2022/08/03 04:27:35;;;;;;;10.52;3.20;;;18.00;99.90;;;;;;5132371;28;20448;-70
2022/08/03 04:30:03;;;;;;;9.43;3.17;;;17.90;99.90;;;;;;5113492;28;20047;-70
2022/08/03 04:32:30;;;;;;;11.85;3.33;;;17.90;99.90;;;;;;5132404;28;20403;-70
2022/08/03 04:34:56;;;;;;;8.23;3.45;;;17.90;99.90;;;;;;5130461;28;20472;-71
2022/08/03 04:37:42;;;;;;;7.25;2.90;;;18.20;99.90;;;;;;5089727;27;20046;-71
2022/08/03 04:40:19;;;;;;;5.18;2.58;;;18.00;99.90;;;;;;5117008;27;20062;-70
2022/08/03 04:42:47;;;;;;;6.80;3.25;;;18.10;99.90;;;;;;5117571;27;20039;-70
2022/08/03 04:45:14;;;;;;;7.13;2.80;;;18.20;99.90;;;;;;5135855;27;20127;-70
2022/08/03 04:47:41;;;;;;;10.98;3.75;;;18.30;99.90;;;;;;5117327;27;20416;-70
2022/08/03 04:50:08;;;;;;;13.85;3.42;;;18.20;99.90;;;;;;5117222;27;20118;-70
2022/08/03 04:52:34;;;;;;;8.65;3.67;;;18.50;99.90;;;;;;5117332;27;20131;-71
2022/08/03 04:54:59;;;;;;;7.40;4.00;;;18.50;99.90;;;;;;5117345;27;20088;-70
2022/08/03 04:57:25;;;;;;;11.68;4.35;;;18.50;99.90;;;;;;5135692;27;20047;-69
2022/08/03 04:59:53;;;;;;;9.18;3.70;;;18.40;99.90;;;;;;5135313;27;20031;-71
2022/08/03 05:02:20;;;;;;;9.98;3.33;;;18.80;99.90;;;;;;5135478;27;20031;-70
2022/08/03 05:04:46;;;;;;;6.53;3.05;;;18.70;99.90;;;;;;5116886;27;20058;-70
2022/08/03 05:07:15;;;;;;;10.68;4.13;;;18.80;99.90;;;;;;5117048;27;20050;-70
2022/08/03 05:09:41;;;;;;;6.93;3.08;;;19.10;99.90;;;;;;5116531;27;20126;-70
2022/08/03 05:12:07;;;;;;;7.20;3.22;;;19.40;99.90;;;;;;5135380;27;20062;-70
2022/08/03 05:14:34;;;;;;;10.82;3.67;;;19.30;99.90;;;;;;5135130;27;20031;-71
2022/08/03 05:17:00;;;;;;;8.73;3.17;;;19.40;99.90;;;;;;5134980;27;20450;-71
2022/08/03 05:19:26;;;;;;;17.33;3.15;;;19.80;99.90;;;;;;5134659;27;20039;-70
2022/08/03 05:21:51;;;;;;;9.68;3.42;;;20.00;99.90;;;;;;5134984;27;20031;-70
2022/08/03 05:24:17;;;;;;;12.23;2.90;;;20.00;99.90;;;;;;5116384;27;20059;-71
2022/08/03 05:26:42;;;;;;;8.52;3.30;;;19.90;99.90;;;;;;5135065;27;20156;-70
2022/08/03 05:29:08;;;;;;;6.97;2.80;;;20.10;99.90;;;;;;5134937;27;20163;-70
2022/08/03 05:31:33;;;;;;;7.05;2.83;;;20.60;99.90;;;;;;5134548;27;20035;-70
2022/08/03 05:33:59;;;;;;;10.88;3.33;;;20.90;99.90;;;;;;5116206;27;20040;-71
2022/08/03 05:36:24;;;;;;;7.68;3.08;;;20.90;99.90;;;;;;5134675;27;20446;-70
2022/08/03 05:38:50;;;;;;;11.82;2.90;;;21.10;99.90;;;;;;5134870;27;20031;-70
2022/08/03 05:41:16;;;;;;;7.18;2.83;;;21.30;99.90;;;;;;5133226;27;20035;-71
2022/08/03 05:43:41;;;;;;;13.85;2.85;;;21.40;99.90;;;;;;5134627;27;20488;-70
2022/08/03 05:46:07;;;;;;;7.95;3.05;;;21.40;99.90;;;;;;5134501;27;20046;-70
2022/08/03 05:48:32;;;;;;;11.40;3.08;;;21.70;99.90;;;;;;5134396;27;20073;-70
2022/08/03 05:50:58;;;;;;;10.13;3.67;;;21.40;99.90;;;;;;5115635;27;20107;-70
2022/08/03 05:53:25;;;;;;;12.27;3.20;;;21.60;99.90;;;;;;5134594;27;20378;-70
2022/08/03 05:55:50;;;;;;;9.00;3.15;;;21.60;99.90;;;;;;5133895;22;20077;-69
2022/08/03 05:58:16;;;;;;;8.95;2.95;;;21.60;99.90;;;;;;5113664;28;20043;-69
2022/08/03 06:00:41;;;;;;;8.45;3.10;;;21.90;99.90;;;;;;5112456;28;20088;-69
2022/08/03 06:03:07;;;;;;;7.10;2.67;;;22.20;99.90;;;;;;5112775;28;20031;-69
2022/08/03 06:05:35;;;;;;;9.18;2.75;;;22.30;99.90;;;;;;5113454;28;20036;-69
2022/08/03 06:08:01;;;;;;;11.07;2.78;;;22.50;99.90;;;;;;5113753;28;20048;-69
2022/08/03 06:10:27;;;;;;;8.95;2.67;;;22.90;99.90;;;;;;5113397;28;20054;-69
2022/08/03 06:12:52;;;;;;;11.27;3.15;;;23.10;99.90;;;;;;5113549;28;20043;-69
2022/08/03 06:15:18;;;;;;;9.57;2.65;;;23.10;99.90;;;;;;5112101;28;20067;-70
2022/08/03 06:17:46;;;;;;;14.40;3.30;;;23.20;99.90;;;;;;5113269;28;20092;-69
2022/08/03 06:20:11;;;;;;;10.65;2.60;;;23.40;99.90;;;;;;5112714;28;20035;-70
2022/08/03 06:22:37;;;;;;;8.80;2.97;;;23.30;99.90;;;;;;5114177;28;20502;-69
2022/08/03 06:25:03;;;;;;;10.23;2.63;;;23.30;99.90;;;;;;5114401;28;20041;-69
2022/08/03 06:27:28;;;;;;;12.77;3.38;;;23.10;99.90;;;;;;5113559;28;20488;-69
2022/08/03 06:29:54;;;;;;;7.13;2.63;;;23.30;99.90;;;;;;5111935;28;20039;-69
2022/08/03 06:32:21;;;;;;;7.97;2.63;;;23.30;99.90;;;;;;5113191;28;20047;-69
2022/08/03 06:34:47;;;;;;;7.32;2.60;;;23.40;99.90;;;;;;5113167;28;20055;-70
2022/08/03 06:37:13;;;;;;;11.90;2.60;;;23.60;99.90;;;;;;5112894;28;20546;-69
2022/08/03 06:39:39;;;;;;;9.57;3.55;;;23.80;99.90;;;;;;5111389;28;20126;-69
2022/08/03 06:42:04;;;;;;;8.30;2.70;;;24.00;99.90;;;;;;5113132;28;20039;-69
2022/08/03 06:44:30;;;;;;;10.75;2.78;;;24.10;99.90;;;;;;5113141;28;20043;-69
2022/08/03 06:46:57;;;;;;;9.60;2.65;;;24.50;99.90;;;;;;5112882;28;20039;-69
2022/08/03 06:49:23;;;;;;;13.02;3.05;;;24.70;99.90;;;;;;5112475;28;20046;-70
2022/08/03 06:51:51;;;;;;;12.48;2.78;;;24.60;99.90;;;;;;5112776;28;20039;-70
2022/08/03 06:54:17;;;;;;;9.65;3.00;;;24.50;99.90;;;;;;5112881;28;20048;-69
2022/08/03 06:56:42;;;;;;;10.70;3.28;;;24.60;99.90;;;;;;5112448;28;20050;-69
2022/08/03 06:59:08;;;;;;;8.50;2.78;;;24.60;99.90;;;;;;5112453;28;20114;-70
2022/08/03 07:01:33;;;;;;;7.80;2.90;;;24.60;99.90;;;;;;5112172;28;20035;-69
2022/08/03 07:04:00;;;;;;;11.95;2.90;;;24.60;99.90;;;;;;5112473;28;20035;-69
2022/08/03 07:06:25;;;;;;;9.88;2.65;;;24.50;99.90;;;;;;5112657;28;20032;-70
2022/08/03 07:08:51;;;;;;;12.15;2.88;;;24.70;99.90;;;;;;5112750;28;20156;-70
2022/08/03 07:11:16;;;;;;;10.05;2.78;;;24.90;99.90;;;;;;5112144;28;20491;-70
2022/08/03 07:13:42;;;;;;;11.75;3.05;;;25.00;99.90;;;;;;5112442;28;20039;-69
2022/08/03 07:16:08;;;;;;;10.77;2.50;;;25.20;99.90;;;;;;5110968;28;20093;-70
2022/08/03 07:18:37;;;;;;;7.30;2.30;;;25.40;99.90;;;;;;5110947;28;20084;-70
2022/08/03 07:21:03;;;;;;;9.48;2.70;;;25.40;99.90;;;;;;5110927;28;20515;-70
2022/08/03 07:23:28;;;;;;;11.63;2.85;;;25.40;99.90;;;;;;5112391;28;20043;-69
2022/08/03 07:25:54;;;;;;;13.63;3.30;;;25.40;99.90;;;;;;5111013;28;20066;-70
2022/08/03 07:28:20;;;;;;;12.80;3.03;;;25.20;99.90;;;;;;5112161;28;20047;-70
2022/08/03 07:30:46;;;;;;;10.02;3.13;;;25.30;99.90;;;;;;5111852;28;20055;-69
2022/08/03 07:33:11;;;;;;;7.30;2.30;;;25.60;99.90;;;;;;5112182;28;20031;-70
2022/08/03 07:35:37;;;;;;;8.63;2.58;;;26.00;99.90;;;;;;5112302;28;20188;-70
2022/08/03 07:38:03;;;;;;;8.35;2.30;;;25.80;99.90;;;;;;5112203;28;20047;-69
2022/08/03 07:40:28;;;;;;;9.98;2.78;;;26.00;99.40;;;;;;5111781;28;20067;-69
2022/08/03 07:42:54;;;;;;;11.63;2.63;;;26.30;99.00;;;;;;5112074;28;20038;-70
2022/08/03 07:45:22;;;;;;;11.68;3.38;;;26.30;98.60;;;;;;5111985;28;20115;-70
2022/08/03 07:47:47;;;;;;;15.25;4.50;;;26.40;98.10;;;;;;5111909;28;20039;-70
2022/08/03 07:50:13;;;;;;;9.55;2.85;;;26.40;98.30;;;;;;5111854;28;20046;-70
2022/08/03 07:52:48;;;;;;;8.32;2.72;;;26.30;98.20;;;;;;5112103;28;20126;-69
2022/08/03 07:55:14;;;;;;;10.07;2.92;;;26.30;97.80;;;;;;5111884;28;20050;-69
2022/08/03 07:57:40;;;;;;;11.57;2.45;;;26.30;97.80;;;;;;5111974;28;20039;-69
2022/08/03 08:00:11;;;;;;;6.07;2.65;;;26.40;98.20;;;;;;5111500;28;20454;-69
2022/08/03 08:02:37;;;;;;;10.00;2.72;;;26.50;97.80;;;;;;5112159;28;20097;-69
2022/08/03 08:05:02;;;;;;;9.40;2.97;;;26.80;97.70;;;;;;5111965;28;20039;-70
2022/08/03 08:07:28;;;;;;;10.50;3.00;;;27.00;97.00;;;;;;5109645;28;20064;-69
2022/08/03 08:09:54;;;;;;;7.72;2.22;;;27.00;96.80;;;;;;5100816;28;20060;-70
2022/08/03 08:12:19;;;;;;;7.38;2.50;;;27.20;96.40;;;;;;5102139;28;20537;-70
2022/08/03 08:14:45;;;;;;;11.25;2.90;;;27.50;96.10;;;;;;5106052;28;20534;-69
2022/08/03 08:17:11;;;;;;;8.45;2.78;;;27.70;95.60;;;;;;5104502;28;20533;-70
2022/08/03 08:19:37;;;;;;;9.75;2.78;;;27.80;95.40;;;;;;5104507;28;20504;-70
2022/08/03 08:22:02;;;;;;;9.00;3.03;;;27.70;94.60;;;;;;5114925;28;20039;-69
2022/08/03 08:24:32;;;;;;;10.55;2.95;;;27.70;94.30;;;;;;5114467;28;20032;-69
2022/08/03 08:26:59;;;;;;;10.25;2.80;;;27.70;94.10;;;;;;5115463;28;20127;-70
2022/08/03 08:29:25;;;;;;;7.75;2.28;;;27.80;94.00;;;;;;5114979;28;20088;-70
2022/08/03 08:31:51;;;;;;;11.07;2.80;;;27.70;93.50;;;;;;5097189;28;20128;-70
2022/08/03 08:34:17;;;;;;;11.15;3.17;;;28.00;93.30;;;;;;5115522;28;20044;-70
2022/08/03 08:36:43;;;;;;;8.77;2.90;;;28.20;93.30;;;;;;5115285;28;20043;-70
2022/08/03 08:39:08;;;;;;;9.88;2.13;;;28.00;92.90;;;;;;5115185;28;20119;-70
2022/08/03 08:41:34;;;;;;;10.13;3.03;;;28.10;92.80;;;;;;5113751;28;20039;-70
2022/08/03 08:44:00;;;;;;;8.20;2.38;;;28.30;92.90;;;;;;5115024;28;20031;-70
2022/08/03 08:46:28;;;;;;;7.88;2.40;;;28.50;92.50;;;;;;5115188;28;20039;-70
2022/08/03 08:48:55;;;;;;;6.70;2.30;;;28.60;92.20;;;;;;5115235;28;20031;-70
2022/08/03 08:51:21;;;;;;;8.35;2.53;;;28.80;92.10;;;;;;5114917;28;20096;-70
2022/08/03 08:53:50;;;;;;;6.88;2.55;;;28.70;91.30;;;;;;5114996;28;20054;-70
2022/08/03 08:56:17;;;;;;;10.13;2.50;;;28.50;91.00;;;;;;5114771;28;20043;-70
2022/08/03 08:58:56;;;;;;;6.85;2.20;;;28.40;90.90;;;;;;5114706;27;20040;-70
2022/08/03 09:01:22;;;;;;;10.65;2.72;;;28.60;91.30;;;;;;5114757;28;20046;-70
2022/08/03 09:03:48;;;;;;;8.02;2.20;;;28.90;91.20;;;;;;5114874;28;20040;-70
2022/08/03 09:06:14;;;;;;;7.20;2.45;;;29.10;90.60;;;;;;5114702;28;20173;-70
2022/08/03 09:08:40;;;;;;;8.65;3.03;;;29.30;89.90;;;;;;5114544;27;20040;-70
2022/08/03 09:11:06;;;;;;;8.85;2.35;;;29.20;88.70;;;;;;5114159;28;20040;-70
2022/08/03 09:13:33;;;;;;;6.45;2.53;;;29.10;88.30;;;;;;5114756;28;20046;-70
2022/08/03 09:16:20;;;;;;;7.20;2.90;;;28.90;88.10;;;;;;5114623;28;20095;-71
2022/08/03 09:18:49;;;;;;;6.82;2.25;;;28.70;86.70;;;;;;5114498;28;20047;-70
2022/08/03 09:21:18;;;;;;;7.80;2.70;;;28.50;87.50;;;;;;5114183;28;20039;-71
2022/08/03 09:23:53;;;;;;;8.95;3.00;;;28.00;89.70;;;;;;5114010;28;20044;-70
2022/08/03 09:26:29;;;;;;;7.55;2.92;;;28.00;90.60;;;;;;5114444;28;20081;-70
2022/08/03 09:29:01;;;;;;;11.18;3.17;;;28.00;90.70;;;;;;5105162;28;20036;-70
2022/08/03 09:31:38;;;;;;;11.17;3.13;;;28.00;90.80;;;;;;5104524;28;20046;-70
2022/08/03 09:34:05;;;;;;;7.85;2.40;;;27.70;90.70;;;;;;5108030;28;20043;-70
2022/08/03 09:36:45;;;;;;;8.80;2.60;;;27.70;91.10;;;;;;5107592;28;20038;-70
2022/08/03 09:39:12;;;;;;;7.13;2.58;;;27.50;91.10;;;;;;5105609;28;20424;-70
2022/08/03 09:41:43;;;;;;;11.43;2.88;;;27.70;91.60;;;;;;5114035;28;20039;-70
2022/08/03 09:44:09;;;;;;;7.10;2.53;;;27.60;91.60;;;;;;5105378;28;20035;-70
2022/08/03 09:46:55;;;;;;;8.43;2.75;;;27.70;92.10;;;;;;5113781;28;20032;-70
2022/08/03 09:49:20;;;;;;;6.57;2.72;;;27.80;91.60;;;;;;5106148;28;20036;-70
2022/08/03 09:51:47;;;;;;;11.88;2.60;;;27.80;91.90;;;;;;5113988;28;20047;-70
2022/08/03 09:54:12;;;;;;;7.88;2.95;;;27.70;91.60;;;;;;5113732;28;20553;-68
2022/08/03 09:56:43;;;;;;;9.88;2.65;;;27.80;91.90;;;;;;5113595;28;20114;-68
2022/08/03 09:59:23;;;;;;;11.27;2.90;;;27.90;92.10;;;;;;5113626;28;20065;-70
2022/08/03 10:01:48;;;;;;;6.70;2.40;;;28.00;92.30;;;;;;5113894;28;20032;-70
2022/08/03 10:04:15;;;;;;;7.55;3.17;;;28.00;92.00;;;;;;5109782;28;20059;-70
2022/08/03 10:06:45;;;;;;;8.07;2.58;;;27.90;91.90;;;;;;5108910;28;20596;-70
2022/08/03 10:09:12;;;;;;;10.55;2.83;;;27.70;91.30;;;;;;5104558;28;20522;-71
2022/08/03 10:11:40;;;;;;;6.75;2.90;;;27.80;91.80;;;;;;5113274;28;20100;-71
2022/08/03 10:14:10;;;;;;;12.05;2.95;;;27.60;91.80;;;;;;5113678;28;20042;-70
2022/08/03 10:16:37;;;;;;;9.02;3.42;;;27.60;92.40;;;;;;5112263;28;20031;-71
2022/08/03 10:19:05;;;;;;;10.50;3.33;;;27.50;92.20;;;;;;5113235;28;20043;-71
2022/08/03 10:21:36;;;;;;;8.02;2.60;;;27.40;92.50;;;;;;5113054;28;20042;-71
2022/08/03 10:24:04;;;;;;;12.73;4.07;;;27.30;92.60;;;;;;5113121;28;20044;-70
2022/08/03 10:26:33;;;;;;;10.02;2.67;;;27.30;93.30;;;;;;5113219;28;20031;-70
2022/08/03 10:29:01;;;;;;;8.70;2.97;;;27.40;93.60;;;;;;5113255;28;20043;-70
2022/08/03 10:31:33;;;;;;;9.73;2.95;;;27.40;92.90;;;;;;5112714;28;20046;-70
2022/08/03 10:34:00;;;;;;;8.18;2.45;;;27.50;93.40;;;;;;5111781;28;20075;-70
2022/08/03 10:36:29;;;;;;;11.30;2.90;;;27.10;93.10;;;;;;5103474;28;20036;-70
2022/08/03 10:38:55;;;;;;;21.80;6.05;;;27.10;93.40;;;;;;5103436;28;20036;-70
2022/08/03 10:41:25;;;;;;;11.73;3.40;;;27.10;93.30;;;;;;5100800;28;20571;-70
2022/08/03 10:43:56;;;;;;;10.13;3.10;;;27.10;93.20;;;;;;5111692;28;20038;-70
2022/08/03 10:46:22;;;;;;;12.30;3.22;;;27.20;92.90;;;;;;5112651;28;20401;-71
2022/08/03 10:48:49;;;;;;;5.03;2.13;;;27.30;92.70;;;;;;5112907;28;20035;-70
2022/08/03 10:51:15;;;;;;;18.27;3.03;;;27.30;92.70;;;;;;5128122;27;20508;-70
2022/08/03 10:53:42;;;;;;;10.25;2.70;;;27.20;92.70;;;;;;5112705;28;20115;-70
2022/08/03 10:59:19;;;;;;;6.30;2.08;;;27.10;92.90;;;;;;5112122;28;20152;-70
2022/08/03 11:01:51;;;;;;;8.07;2.58;;;27.10;93.50;;;;;;5112272;28;20043;-70
2022/08/03 11:04:23;;;;;;;16.77;3.60;;;27.10;93.30;;;;;;5111350;28;20048;-71
2022/08/03 11:07:14;;;;;;;8.18;2.40;;;27.00;93.10;;;;;;5112431;28;20040;-71
2022/08/03 11:09:46;;;;;;;9.15;3.00;;;27.00;93.30;;;;;;5111809;28;20054;-70
2022/08/03 11:12:38;;;;;;;10.13;2.72;;;26.90;93.70;;;;;;5110964;28;20035;-70
2022/08/03 11:15:07;;;;;;;10.57;3.85;;;26.90;93.70;;;;;;5099180;28;20066;-70
2022/08/03 11:17:34;;;;;;;9.85;3.53;;;27.00;93.90;;;;;;5102436;28;20535;-70
2022/08/03 11:20:00;;;;;;;9.10;3.33;;;27.00;93.80;;;;;;5099556;28;20396;-70
2022/08/03 11:22:53;;;;;;;9.27;3.22;;;27.10;94.00;;;;;;5091723;28;20042;-70
2022/08/03 11:25:18;;;;;;;12.20;3.35;;;27.10;94.10;;;;;;5096501;28;20028;-71
2022/08/03 11:27:44;;;;;;;10.55;3.35;;;27.20;94.00;;;;;;5100459;28;20054;-71
2022/08/03 11:30:19;;;;;;;15.88;3.70;;;27.10;94.10;;;;;;5099075;28;20089;-70
2022/08/03 11:32:49;;;;;;;10.35;3.95;;;27.10;94.20;;;;;;5091589;28;20042;-70
2022/08/03 11:35:17;;;;;;;11.70;2.72;;;27.10;94.30;;;;;;5090591;28;20082;-70
2022/08/03 11:38:00;;;;;;;15.55;3.50;;;27.20;93.80;;;;;;5091549;28;20044;-70
2022/08/03 11:40:48;;;;;;;10.35;3.13;;;27.40;94.00;;;;;;5091274;28;20040;-70
2022/08/03 11:43:29;;;;;;;14.27;3.22;;;27.40;93.90;;;;;;5091469;28;20089;-70
2022/08/03 11:46:16;;;;;;;10.98;3.28;;;27.60;93.50;;;;;;5092198;28;22074;-70
2022/08/03 11:48:44;;;;;;;15.02;3.40;;;27.60;93.40;;;;;;5105598;28;20043;-70
2022/08/03 11:51:28;;;;;;;14.45;3.28;;;27.70;93.60;;;;;;5109040;28;20103;-70
2022/08/03 11:54:05;;;;;;;11.95;3.35;;;27.80;93.60;;;;;;5112695;28;20420;-70
2022/08/03 11:56:48;;;;;;;10.45;3.30;;;27.80;92.90;;;;;;5109717;22;20098;-71
2022/08/03 11:59:16;;;;;;;11.20;2.92;;;28.00;92.40;;;;;;5053639;28;20044;-71
2022/08/03 12:01:42;;;;;;;13.32;3.22;;;28.10;92.80;;;;;;5053929;28;20047;-71
2022/08/03 12:04:09;;;;;;;10.15;3.53;;;28.10;92.70;;;;;;5054607;28;20041;-71
2022/08/03 12:06:53;;;;;;;15.25;4.47;;;28.10;92.30;;;;;;5055750;28;20094;-71
2022/08/03 12:09:19;;;;;;;15.20;3.75;;;28.00;92.90;;;;;;5055510;28;20041;-71
2022/08/03 12:11:49;;;;;;;23.10;4.10;;;28.10;92.20;;;;;;5054554;28;20170;-71
2022/08/03 12:14:19;;;;;;;14.93;4.15;;;28.20;91.90;;;;;;5055086;28;20037;-72
2022/08/03 12:16:48;;;;;;;12.95;4.18;;;28.30;91.60;;;;;;5055145;28;20142;-71
2022/08/03 12:19:14;;;;;;;12.05;3.45;;;28.20;90.00;;;;;;5055707;28;20486;-71
2022/08/03 12:21:47;;;;;;;14.93;4.15;;;28.20;88.90;;;;;;5055071;28;20040;-71
2022/08/03 12:24:13;;;;;;;18.67;3.90;;;28.10;90.10;;;;;;5055100;28;20036;-71
2022/08/03 12:26:47;;;;;;;11.82;3.45;;;28.00;90.00;;;;;;5055068;28;20041;-71
2022/08/03 12:29:20;;;;;;;18.23;4.05;;;28.00;90.10;;;;;;5054556;28;20391;-71
2022/08/03 12:31:46;;;;;;;;;;;28.00;88.50;;;;;;5055862;28;20048;-72
2022/08/03 12:34:12;;;;;;;12.00;3.78;;;27.90;88.90;;;;;;5054767;28;19916;-72
2022/08/03 12:36:50;;;;;;;13.80;3.55;;;28.00;89.80;;;;;;5054862;28;20079;-72
2022/08/03 12:39:16;;;;;;;17.42;3.97;;;28.00;87.90;;;;;;5054254;28;20045;-71
2022/08/03 12:41:41;;;;;;;12.60;3.10;;;28.00;87.20;;;;;;5054824;28;20095;-72
2022/08/03 12:44:08;;;;;;;12.93;3.45;;;28.00;85.00;;;;;;5054518;28;20041;-71
2022/08/03 12:46:38;;;;;;;12.93;3.20;;;28.00;84.70;;;;;;5054402;28;20415;-71
2022/08/03 12:49:17;;;;;;;9.98;3.30;;;28.00;82.70;;;;;;5054438;28;20136;-71
2022/08/03 12:51:42;;;;;;;14.43;3.28;;;27.90;82.70;;;;;;5054620;28;20055;-71
2022/08/03 12:54:19;;;;;;;16.02;3.30;;;28.00;84.30;;;;;;5054314;28;20037;-71
2022/08/03 12:56:58;;;;;;;8.82;2.97;;;28.00;81.90;;;;;;5054213;28;20041;-71
2022/08/03 12:59:26;;;;;;;14.77;3.80;;;28.10;83.20;;;;;;5053601;28;20109;-71
2022/08/03 13:01:51;;;;;;;11.75;3.67;;;28.10;80.10;;;;;;5054479;28;20068;-71